createdAt,value
2023-05-10T16:20:10.555Z,2.4286
2023-05-10T16:21:04.202Z,4.7500
2023-05-10T16:22:06.746Z,3.6923
2023-05-10T16:23:09.338Z,5.7692
2023-05-10T16:24:11.889Z,5.1538
2023-05-10T16:25:14.494Z,6.7692
2023-05-10T16:26:17.048Z,8.6154
2023-05-10T16:27:19.645Z,4.1538
2023-05-10T16:28:22.182Z,10.8462
2023-05-10T16:29:24.985Z,11.0769
2023-05-10T16:30:27.349Z,8.6154
2023-05-10T16:31:30.048Z,5.2308
2023-05-10T16:32:32.587Z,8.0000
2023-05-10T16:33:35.069Z,6.9231
2023-05-10T16:34:37.619Z,7.6154
2023-05-10T16:39:51.770Z,1.0000
2023-05-10T20:06:19.498Z,36.7143
2023-05-10T20:07:09.557Z,51.4545
2023-05-10T20:08:12.179Z,32.0000
2023-05-10T20:28:30.585Z,4.8571
2023-05-10T20:29:22.931Z,15.3636
2023-05-10T20:30:24.313Z,36.0833
2023-05-10T20:31:27.104Z,32.6923
2023-05-10T20:32:29.522Z,37.4615
2023-05-10T20:33:32.285Z,53.1538
2023-05-10T20:34:34.629Z,47.9231
2023-05-10T20:35:37.184Z,62.0000
2023-05-10T20:36:39.789Z,43.4615
2023-05-10T20:37:42.324Z,72.1538
2023-05-10T20:38:44.955Z,93.0000
2023-05-10T20:39:49.817Z,121.0769
2023-05-10T20:40:50.251Z,114.6154
2023-05-10T20:41:52.631Z,104.2308
2023-05-10T20:42:55.245Z,105.3077
2023-05-10T20:43:57.790Z,80.0769
2023-05-10T20:45:01.545Z,72.1538
2023-05-10T20:46:02.945Z,100.9231
2023-05-10T20:47:05.526Z,66.0000
2023-05-10T20:48:08.160Z,59.0769
2023-05-10T20:49:10.700Z,72.4615
2023-05-10T20:50:13.283Z,83.2308
2023-05-10T20:51:15.968Z,82.3077
2023-05-10T20:52:18.375Z,77.3846
2023-05-10T20:53:20.981Z,69.0000
2023-05-10T20:54:23.547Z,67.8462
2023-05-10T20:55:26.131Z,51.7692
2023-05-10T20:56:28.996Z,23.8462
2023-05-10T20:57:31.304Z,49.0000
2023-05-10T20:58:33.844Z,38.3846
2023-05-10T20:59:36.947Z,27.8462
2023-05-10T21:00:38.986Z,27.1538
2023-05-10T21:01:41.714Z,16.2308
2023-05-10T21:02:44.174Z,16.0769
2023-05-10T21:03:46.771Z,11.3846
2023-05-10T21:04:49.391Z,14.2308
2023-05-10T21:05:51.882Z,8.7692
2023-05-10T21:06:54.432Z,7.6154
2023-05-10T21:07:57.141Z,5.1538
2023-05-10T21:08:59.774Z,5.0769
2023-05-10T21:10:02.171Z,8.0000
2023-05-10T21:11:04.739Z,3.9231
2023-05-10T21:12:07.319Z,13.3077
2023-05-10T21:13:09.869Z,7.9231
2023-05-10T21:14:12.492Z,11.3077
2023-05-10T21:15:15.025Z,18.1538
2023-05-10T21:16:17.651Z,23.5385
2023-05-10T21:17:20.439Z,24.3077
2023-05-10T21:18:22.851Z,31.0769
2023-05-10T21:19:25.298Z,34.6923
2023-05-10T21:20:27.907Z,35.6154
2023-05-10T21:21:30.453Z,43.3077
2023-05-10T21:22:33.050Z,39.0769
2023-05-10T21:23:35.596Z,37.3846
2023-05-10T21:24:38.207Z,38.6154
2023-05-10T21:25:40.764Z,36.0000
2023-05-10T21:26:43.360Z,37.3077
2023-05-10T21:27:45.900Z,42.6154
2023-05-10T21:28:48.837Z,33.8462
2023-05-10T21:29:51.067Z,49.5385
2023-05-10T21:30:53.673Z,37.3077
2023-05-10T21:31:56.237Z,35.5385
2023-05-10T21:32:58.830Z,38.7692
2023-05-10T21:34:01.635Z,30.7692
2023-05-10T21:35:03.950Z,33.3846
2023-05-10T21:36:06.561Z,29.3846
2023-05-10T21:37:09.104Z,25.8462
2023-05-10T21:38:11.796Z,27.7692
2023-05-10T21:39:14.254Z,25.0000
2023-05-10T21:40:17.022Z,28.5385
2023-05-10T21:41:19.398Z,28.1538
2023-05-10T21:42:21.978Z,24.3846
2023-05-10T21:43:24.759Z,22.0769
2023-05-10T21:44:27.091Z,23.2308
2023-05-10T21:45:29.731Z,22.0000
2023-05-10T21:46:32.270Z,21.7692
2023-05-10T21:47:34.881Z,20.9231
2023-05-10T21:48:37.406Z,19.9231
2023-05-10T21:49:39.985Z,18.2308
2023-05-10T21:50:42.535Z,19.6154
2023-05-10T21:51:45.135Z,21.0000
2023-05-10T21:52:47.683Z,21.7692
2023-05-10T21:53:50.290Z,21.0769
2023-05-10T21:54:52.831Z,20.7692
2023-05-10T21:55:55.459Z,20.3846
2023-05-10T21:56:57.976Z,18.6923
2023-05-10T21:58:00.588Z,20.6154
2023-05-10T21:59:03.129Z,19.1538
2023-05-10T22:00:05.733Z,18.6923
2023-05-10T22:01:08.317Z,19.0000
2023-05-10T22:02:10.938Z,26.1538
2023-05-10T22:03:13.574Z,38.6154
2023-05-10T22:04:16.019Z,46.1538
2023-05-10T22:05:18.570Z,33.9231
2023-05-10T22:06:21.182Z,8.2308
2023-05-10T22:07:23.720Z,5.0000
2023-05-10T22:08:26.307Z,2.9231
2023-05-10T22:09:28.860Z,2.8462
2023-05-10T22:10:31.466Z,1.5385
2023-05-10T22:11:34.009Z,0.0000
2023-05-10T22:12:36.641Z,0.0000
2023-05-10T22:13:39.165Z,0.0000
2023-05-10T22:14:41.769Z,0.0000
2023-05-10T22:15:44.313Z,0.0000
2023-05-10T22:16:46.985Z,0.0000
2023-05-10T22:17:49.589Z,0.0000
2023-05-10T22:18:52.115Z,0.0000
2023-05-10T22:19:54.611Z,0.0769
2023-05-10T22:20:57.215Z,2.0000
2023-05-10T22:21:59.760Z,1.6154
2023-05-10T22:23:02.367Z,1.4615
2023-05-10T22:24:04.937Z,2.0769
2023-05-10T22:25:07.614Z,1.3846
2023-05-10T22:26:10.114Z,2.5385
2023-05-10T22:27:12.643Z,4.3846
2023-05-10T22:28:15.249Z,3.3077
2023-05-10T22:29:17.827Z,4.9231
2023-05-10T22:30:20.597Z,3.0769
2023-05-10T22:31:22.995Z,2.5385
2023-05-10T22:32:25.642Z,3.3077
2023-05-10T22:33:28.138Z,13.5385
2023-05-10T22:34:30.709Z,8.6923
2023-05-10T22:35:33.265Z,2.6923
2023-05-10T22:36:35.879Z,4.3077
2023-05-10T22:37:38.417Z,4.0769
2023-05-10T22:38:41.044Z,3.0000
2023-05-10T22:39:43.568Z,0.0000
2023-05-10T22:40:46.172Z,0.0000
2023-05-10T22:41:48.722Z,0.0000
2023-05-10T22:42:51.333Z,0.0000
2023-05-10T22:43:53.873Z,0.0000
2023-05-10T22:44:56.469Z,0.0000
2023-05-10T22:45:59.078Z,0.0000
2023-05-10T22:47:01.620Z,0.0000
2023-05-10T22:48:04.280Z,0.0000
2023-05-10T22:49:06.792Z,0.0000
2023-05-10T22:50:09.551Z,0.0000
2023-05-10T22:51:11.969Z,0.0000
2023-05-10T22:52:14.494Z,0.0000
2023-05-10T22:53:17.103Z,0.0000
2023-05-10T22:54:19.655Z,0.0000
2023-05-10T22:55:22.259Z,0.0000
2023-05-10T22:56:24.812Z,0.0000
2023-05-10T22:57:27.406Z,0.0000
2023-05-10T22:58:29.958Z,0.0000
2023-05-10T22:59:32.589Z,0.0000
2023-05-10T23:00:35.143Z,0.0000
2023-05-10T23:01:37.756Z,0.0000
2023-05-10T23:02:40.296Z,0.0000
2023-05-10T23:03:42.866Z,0.0000
2023-05-10T23:04:45.445Z,0.0000
2023-05-10T23:05:48.044Z,0.0000
2023-05-10T23:06:50.634Z,0.0000
2023-05-10T23:07:53.222Z,0.0000
2023-05-10T23:08:55.699Z,0.0000
2023-05-10T23:09:58.335Z,0.0000
2023-05-10T23:11:00.889Z,0.0000
2023-05-10T23:12:03.462Z,0.0000
2023-05-10T23:13:06.016Z,0.0000
2023-05-10T23:14:08.618Z,0.0000
2023-05-10T23:15:11.208Z,0.0000
2023-05-10T23:16:13.856Z,0.0000
2023-05-10T23:17:16.320Z,0.0000
2023-05-10T23:18:18.959Z,0.0000
2023-05-10T23:19:21.470Z,0.0000
2023-05-10T23:20:24.101Z,0.0000
2023-05-10T23:21:26.629Z,0.0000
2023-05-10T23:22:29.271Z,0.0000
2023-05-10T23:23:31.842Z,0.0000
2023-05-10T23:24:34.384Z,0.0000
2023-05-10T23:25:36.951Z,0.0000
2023-05-10T23:26:39.574Z,0.0000
2023-05-10T23:27:42.100Z,0.0000
2023-05-10T23:28:44.716Z,0.0000
2023-05-10T23:29:47.261Z,0.0000
2023-05-10T23:30:49.850Z,0.0000
2023-05-10T23:31:52.438Z,0.0000
2023-05-10T23:32:55.063Z,0.0000
2023-05-10T23:33:57.569Z,0.0000
2023-05-10T23:35:00.169Z,0.0000
2023-05-10T23:36:02.798Z,0.0000
2023-05-10T23:37:05.322Z,0.0000
2023-05-10T23:38:07.883Z,0.0000
2023-05-10T23:39:10.498Z,0.0000
2023-05-10T23:40:13.042Z,0.0000
2023-05-10T23:41:15.666Z,0.1538
2023-05-10T23:42:18.232Z,0.1538
2023-05-10T23:43:20.833Z,1.2308
2023-05-10T23:44:23.402Z,3.7692
2023-05-10T23:45:26.046Z,6.3077
2023-05-10T23:46:28.587Z,45.4615
2023-05-10T23:47:31.167Z,21.3077
2023-05-10T23:48:33.737Z,1.2308
2023-05-10T23:49:36.416Z,1.7692
2023-05-10T23:50:38.858Z,1.4615
2023-05-10T23:51:41.444Z,0.0000
2023-05-10T23:52:44.007Z,0.0000
2023-05-10T23:53:46.603Z,0.6923
2023-05-10T23:54:49.153Z,8.9231
2023-05-10T23:55:51.777Z,7.1538
2023-05-10T23:56:54.338Z,2.4615
2023-05-10T23:57:56.924Z,0.0000
2023-05-10T23:58:59.476Z,4.8462
